createdAt,value
2023-03-18T00:00:45.682Z,53.55
2023-03-18T00:03:12.598Z,53.35
2023-03-18T00:05:39.168Z,53.98
2023-03-18T00:08:06.401Z,53.68
2023-03-18T00:10:33.995Z,53.13
2023-03-18T00:13:01.523Z,52.64
2023-03-18T00:15:28.498Z,52.57
2023-03-18T00:17:55.064Z,53.78
2023-03-18T00:20:21.550Z,53.51
2023-03-18T00:22:48.470Z,53.47
2023-03-18T00:25:15.457Z,53.59
2023-03-18T00:27:42.046Z,53.56
2023-03-18T00:30:09.146Z,53.75
2023-03-18T00:32:35.897Z,53.33
2023-03-18T00:35:03.087Z,53.61
2023-03-18T00:37:41.459Z,53.36
2023-03-18T00:40:14.471Z,53.16
2023-03-18T00:42:43.964Z,52.67
2023-03-18T00:45:10.852Z,53.69
2023-03-18T00:51:08.228Z,54.98
2023-03-18T00:53:34.709Z,54.84
2023-03-18T00:56:01.280Z,55.21
2023-03-18T00:58:27.925Z,55.24
2023-03-18T01:00:54.485Z,54.49
2023-03-18T01:03:21.026Z,54.10
2023-03-18T01:05:47.528Z,53.63
2023-03-18T01:08:14.015Z,53.80
2023-03-18T01:10:40.514Z,53.00
2023-03-18T01:13:07.004Z,52.89
2023-03-18T01:15:33.625Z,52.77
2023-03-18T01:18:00.236Z,52.53
2023-03-18T01:20:35.632Z,53.22
2023-03-18T01:23:02.131Z,53.39
2023-03-18T01:25:35.094Z,53.06
2023-03-18T01:28:01.693Z,53.18
2023-03-18T01:30:28.188Z,54.00
2023-03-18T01:32:58.069Z,54.02
2023-03-18T01:35:24.825Z,53.96
2023-03-18T01:40:30.869Z,53.63
2023-03-18T01:43:18.952Z,54.36
2023-03-18T01:45:49.061Z,53.78
2023-03-18T01:48:20.513Z,54.13
2023-03-18T01:50:52.825Z,53.91
2023-03-18T01:53:20.780Z,54.05
2023-03-18T01:55:48.535Z,54.05
2023-03-18T01:58:29.932Z,53.84
2023-03-18T02:01:01.777Z,54.53
2023-03-18T02:03:31.346Z,56.19
2023-03-18T02:05:57.934Z,55.08
2023-03-18T02:08:24.527Z,56.01
2023-03-18T02:10:51.483Z,55.42
2023-03-18T02:13:18.260Z,54.81
2023-03-18T02:15:55.896Z,54.96
2023-03-18T02:18:33.301Z,55.41
2023-03-18T02:21:22.257Z,55.18
2023-03-18T02:23:58.573Z,54.32
2023-03-18T02:26:52.217Z,54.05
2023-03-18T02:29:19.755Z,54.64
2023-03-18T02:31:46.673Z,54.89
2023-03-18T02:34:13.877Z,53.72
2023-03-18T02:44:26.510Z,52.77
2023-03-18T02:47:01.408Z,53.60
2023-03-18T02:49:28.152Z,52.74
2023-03-18T02:51:57.702Z,52.79
2023-03-18T02:54:29.350Z,53.26
2023-03-18T02:56:56.264Z,53.56
2023-03-18T02:59:23.196Z,53.96
2023-03-18T03:01:51.929Z,53.77
2023-03-18T03:04:20.904Z,53.63
2023-03-18T03:06:47.636Z,53.17
2023-03-18T03:09:15.788Z,54.11
2023-03-18T03:11:44.941Z,54.68
2023-03-18T03:14:11.933Z,54.57
2023-03-18T03:16:38.490Z,54.69
2023-03-18T03:19:07.883Z,55.07
2023-03-18T03:21:34.896Z,55.55
2023-03-18T03:24:03.561Z,55.58
2023-03-18T03:26:30.439Z,55.81
2023-03-18T03:28:57.195Z,56.13
2023-03-18T03:31:23.928Z,55.82
2023-03-18T03:34:27.747Z,56.62
2023-03-18T03:37:32.195Z,57.67
2023-03-18T03:46:47.398Z,58.84
2023-03-18T03:49:13.972Z,59.03
2023-03-18T03:51:40.512Z,58.96
2023-03-18T03:54:07.031Z,58.80
2023-03-18T03:56:33.560Z,58.89
2023-03-18T03:59:00.157Z,59.80
2023-03-18T04:01:26.718Z,59.63
2023-03-18T04:04:25.275Z,59.43
2023-03-18T04:10:20.128Z,58.98
2023-03-18T04:12:47.249Z,60.13
2023-03-18T04:15:15.273Z,59.76
2023-03-18T04:17:41.970Z,60.33
2023-03-18T04:20:10.470Z,59.76
2023-03-18T04:22:39.299Z,59.66
2023-03-18T04:25:06.274Z,59.28
2023-03-18T04:27:33.320Z,59.06
2023-03-18T04:29:59.972Z,59.46
2023-03-18T04:32:26.707Z,58.97
2023-03-18T04:34:53.271Z,60.07
2023-03-18T04:37:19.821Z,60.08
2023-03-18T04:39:48.085Z,60.67
2023-03-18T04:42:14.692Z,60.66
2023-03-18T04:44:42.366Z,61.18
2023-03-18T04:47:09.042Z,62.27
2023-03-18T04:49:35.811Z,62.47
2023-03-18T04:52:02.329Z,61.68
2023-03-18T04:54:28.857Z,62.21
2023-03-18T04:56:55.662Z,61.00
2023-03-18T04:59:22.178Z,61.48
2023-03-18T05:01:48.697Z,62.04
2023-03-18T05:04:17.679Z,62.14
2023-03-18T05:10:26.277Z,62.81
2023-03-18T05:12:58.410Z,62.88
2023-03-18T05:19:02.114Z,62.53
2023-03-18T05:21:34.888Z,62.78
2023-03-18T05:24:01.469Z,63.37
2023-03-18T05:26:28.081Z,62.96
2023-03-18T05:28:56.228Z,62.13
2023-03-18T05:31:22.828Z,61.97
2023-03-18T05:38:29.228Z,62.15
2023-03-18T05:43:33.942Z,62.11
2023-03-18T05:46:00.856Z,61.65
2023-03-18T05:48:30.194Z,62.00
2023-03-18T05:50:56.687Z,61.97
2023-03-18T05:53:23.194Z,61.94
2023-03-18T05:55:49.734Z,62.20
2023-03-18T05:58:16.397Z,62.35
2023-03-18T06:00:42.921Z,62.29
2023-03-18T06:03:09.486Z,62.47
2023-03-18T06:05:36.038Z,61.90
2023-03-18T06:08:03.076Z,61.63
2023-03-18T06:10:29.752Z,61.09
2023-03-18T06:12:56.227Z,60.84
2023-03-18T06:15:23.090Z,60.39
2023-03-18T06:17:50.790Z,61.13
2023-03-18T06:20:17.422Z,60.90
2023-03-18T06:22:44.197Z,59.90
2023-03-18T06:25:11.149Z,59.66
2023-03-18T06:27:37.742Z,58.86
2023-03-18T06:30:05.302Z,59.17
2023-03-18T06:32:32.396Z,59.54
2023-03-18T06:34:58.927Z,58.64
2023-03-18T06:37:25.562Z,59.28
2023-03-18T06:39:52.221Z,58.29
2023-03-18T06:42:18.813Z,57.86
2023-03-18T06:44:45.461Z,56.83
2023-03-18T06:47:12.004Z,56.54
2023-03-18T06:49:38.499Z,56.39
2023-03-18T06:52:05.035Z,55.92
2023-03-18T06:54:31.535Z,54.78
2023-03-18T06:56:58.040Z,54.78
2023-03-18T06:59:24.547Z,54.21
2023-03-18T07:01:51.248Z,53.55
2023-03-18T07:04:17.834Z,52.79
2023-03-18T07:06:44.370Z,52.65
2023-03-18T07:09:10.938Z,52.37
2023-03-18T07:11:37.441Z,52.09
2023-03-18T07:14:04.175Z,51.27
2023-03-18T07:16:30.788Z,51.11
2023-03-18T07:18:57.367Z,52.32
2023-03-18T07:21:23.929Z,52.54
2023-03-18T07:23:50.478Z,51.28
2023-03-18T07:26:16.975Z,50.77
2023-03-18T07:28:43.501Z,49.89
2023-03-18T07:31:10.094Z,49.89
2023-03-18T07:33:36.662Z,50.41
2023-03-18T07:36:03.363Z,49.62
2023-03-18T07:38:29.973Z,48.81
2023-03-18T07:40:56.559Z,46.71
2023-03-18T07:43:23.112Z,45.35
2023-03-18T07:45:49.618Z,44.72
2023-03-18T07:48:16.172Z,43.87
2023-03-18T07:50:42.735Z,42.82
2023-03-18T07:53:09.378Z,41.37
2023-03-18T07:55:38.947Z,40.60
2023-03-18T07:58:05.445Z,40.55
2023-03-18T08:00:32.006Z,38.95
2023-03-18T08:02:58.709Z,38.85
2023-03-18T08:05:25.278Z,41.26
2023-03-18T08:07:54.261Z,42.70
2023-03-18T08:10:20.914Z,43.46
2023-03-18T08:13:37.429Z,44.00
2023-03-18T08:19:54.515Z,45.55
2023-03-18T08:22:44.125Z,44.86
2023-03-18T08:25:36.543Z,44.71
2023-03-18T08:30:39.508Z,45.13
2023-03-18T08:33:09.277Z,45.19
2023-03-18T08:35:36.359Z,45.09
2023-03-18T08:38:03.022Z,44.50
2023-03-18T08:40:29.607Z,44.08
2023-03-18T08:42:56.140Z,44.62
2023-03-18T08:45:24.893Z,45.49
2023-03-18T08:47:57.514Z,43.16
2023-03-18T08:56:04.381Z,43.87
2023-03-18T08:58:30.964Z,44.02
2023-03-18T09:04:35.679Z,45.74
2023-03-18T09:07:02.210Z,46.24
2023-03-18T09:09:42.804Z,44.99
2023-03-18T09:12:10.840Z,46.03
2023-03-18T09:14:43.787Z,45.97
2023-03-18T09:17:13.589Z,46.37
2023-03-18T09:19:40.123Z,47.59
2023-03-18T09:22:12.803Z,45.19
2023-03-18T09:24:42.106Z,46.13
2023-03-18T09:27:11.618Z,45.89
2023-03-18T09:29:41.003Z,44.79
2023-03-18T09:32:07.658Z,46.79
2023-03-18T09:34:34.229Z,42.68
2023-03-18T09:37:38.219Z,43.03
2023-03-18T09:40:06.352Z,40.79
2023-03-18T09:42:54.378Z,43.25
2023-03-18T09:45:34.987Z,44.37
2023-03-18T09:48:23.250Z,45.94
2023-03-18T09:51:19.104Z,45.34
2023-03-18T09:53:51.776Z,44.72
2023-03-18T09:56:22.910Z,45.69
2023-03-18T09:58:55.667Z,46.14
2023-03-18T10:01:27.218Z,44.35
2023-03-18T10:04:00.218Z,44.91
2023-03-18T10:06:26.885Z,44.68
2023-03-18T10:09:16.987Z,42.91
2023-03-18T10:11:47.153Z,43.75
2023-03-18T10:14:37.504Z,43.57
2023-03-18T10:17:17.365Z,45.73
2023-03-18T10:19:51.847Z,44.86
2023-03-18T10:22:23.516Z,45.62
2023-03-18T10:25:05.490Z,43.27
2023-03-18T10:27:53.256Z,45.22
2023-03-18T10:30:39.843Z,44.15
2023-03-18T10:33:12.341Z,43.17
2023-03-18T10:36:16.186Z,39.93
2023-03-18T10:38:48.685Z,39.06
2023-03-18T10:41:29.303Z,38.00
2023-03-18T10:43:57.174Z,37.91
2023-03-18T10:46:24.528Z,36.83
2023-03-18T10:48:54.055Z,38.98
2023-03-18T10:51:32.739Z,38.33
2023-03-18T10:54:17.994Z,37.29
2023-03-18T10:56:45.741Z,36.33
2023-03-18T10:59:15.683Z,37.08
2023-03-18T11:01:45.291Z,36.41
2023-03-18T11:04:15.143Z,36.65
2023-03-18T11:06:48.810Z,37.20
2023-03-18T11:09:20.924Z,36.58
2023-03-18T11:11:49.135Z,35.62
2023-03-18T11:14:20.001Z,37.25
2023-03-18T11:16:59.809Z,40.13
2023-03-18T11:19:46.617Z,40.15
2023-03-18T11:22:26.018Z,40.31
2023-03-18T11:25:18.660Z,40.22
2023-03-18T11:27:50.589Z,40.46
2023-03-18T11:30:34.518Z,41.37
2023-03-18T11:33:12.748Z,41.09
2023-03-18T11:35:46.851Z,40.64
2023-03-18T11:38:22.655Z,40.26
2023-03-18T11:40:49.590Z,39.63
2023-03-18T11:43:19.742Z,36.73
2023-03-18T11:45:46.195Z,34.79
2023-03-18T11:48:30.396Z,34.31
2023-03-18T11:51:26.989Z,34.48
2023-03-18T11:54:08.635Z,34.95
2023-03-18T11:56:42.687Z,34.10
2023-03-18T11:59:16.703Z,34.51
2023-03-18T12:01:55.628Z,34.48
2023-03-18T12:04:55.681Z,34.07
2023-03-18T12:07:52.590Z,35.20
2023-03-18T12:10:34.727Z,34.05
2023-03-18T12:13:39.020Z,32.85
2023-03-18T12:16:20.139Z,33.36
2023-03-18T12:18:54.669Z,34.58
2023-03-18T12:21:23.842Z,34.91
2023-03-18T12:24:00.594Z,34.60
2023-03-18T12:33:46.856Z,35.03
2023-03-18T12:36:28.702Z,35.25
2023-03-18T12:39:03.097Z,35.14
2023-03-18T12:42:07.258Z,35.87
2023-03-18T12:44:52.094Z,35.27
2023-03-18T12:47:49.692Z,35.19
2023-03-18T12:50:35.408Z,35.23
2023-03-18T12:53:04.396Z,35.37
2023-03-18T12:55:33.682Z,35.77
2023-03-18T12:58:35.883Z,36.53
2023-03-18T13:01:19.274Z,36.81
2023-03-18T13:03:50.103Z,38.21
2023-03-18T13:07:13.242Z,38.36
2023-03-18T13:09:59.478Z,37.79
2023-03-18T13:12:37.355Z,38.26
2023-03-18T13:18:44.913Z,38.41
2023-03-18T13:21:24.796Z,38.78
2023-03-18T13:27:52.527Z,37.38
2023-03-18T13:33:39.698Z,38.90
2023-03-18T13:36:39.546Z,37.64
2023-03-18T13:39:43.943Z,37.95
2023-03-18T13:42:37.446Z,38.20
2023-03-18T13:45:20.107Z,38.45
2023-03-18T13:47:46.694Z,37.61
2023-03-18T13:50:19.291Z,38.46
2023-03-18T13:52:47.199Z,37.14
2023-03-18T13:55:32.866Z,37.59
2023-03-18T13:58:05.590Z,37.30
2023-03-18T14:00:34.199Z,36.86
2023-03-18T14:03:19.721Z,36.70
2023-03-18T14:05:50.836Z,36.58
2023-03-18T14:08:39.443Z,36.29
2023-03-18T14:15:40.708Z,36.79
2023-03-18T14:18:24.808Z,36.44
2023-03-18T14:21:23.808Z,37.27
2023-03-18T14:27:21.539Z,36.52
2023-03-18T14:29:53.837Z,36.29
2023-03-18T14:33:04.002Z,35.03
2023-03-18T14:35:35.674Z,35.82
2023-03-18T14:38:15.739Z,36.07
2023-03-18T14:40:48.522Z,35.21
2023-03-18T14:43:40.446Z,34.62
2023-03-18T14:46:16.435Z,36.00
2023-03-18T14:48:52.074Z,34.01
2023-03-18T14:51:23.764Z,34.76
2023-03-18T14:54:03.482Z,34.64
2023-03-18T14:56:31.461Z,35.98
2023-03-18T14:58:58.019Z,34.97
2023-03-18T15:01:38.032Z,34.99
2023-03-18T15:04:04.963Z,35.35
2023-03-18T15:06:31.793Z,35.04
2023-03-18T15:09:09.740Z,35.12
2023-03-18T15:11:46.080Z,34.56
2023-03-18T15:14:23.129Z,36.31
2023-03-18T15:17:01.936Z,35.37
2023-03-18T15:19:29.385Z,35.35
2023-03-18T15:22:02.673Z,34.93
2023-03-18T15:24:30.256Z,35.32
2023-03-18T15:27:04.706Z,35.11
2023-03-18T15:29:43.751Z,34.99
2023-03-18T15:32:20.387Z,35.99
2023-03-18T15:34:53.179Z,35.02
2023-03-18T15:37:42.863Z,35.87
2023-03-18T15:40:17.749Z,35.87
2023-03-18T15:43:10.911Z,35.07
2023-03-18T15:46:11.593Z,35.31
2023-03-18T15:49:06.370Z,35.07
2023-03-18T15:51:46.497Z,35.88
2023-03-18T15:54:43.513Z,35.46
2023-03-18T15:57:27.212Z,35.59
2023-03-18T15:59:53.778Z,35.78
2023-03-18T16:02:22.915Z,35.44
2023-03-18T16:04:49.438Z,36.39
2023-03-18T16:07:22.189Z,36.04
2023-03-18T16:09:49.335Z,35.39
2023-03-18T16:12:21.887Z,35.38
2023-03-18T16:14:49.657Z,36.14
2023-03-18T16:17:21.133Z,37.00
2023-03-18T16:19:51.320Z,36.74
2023-03-18T16:22:17.868Z,36.56
2023-03-18T16:24:44.374Z,35.60
2023-03-18T16:27:38.272Z,37.05
2023-03-18T16:30:06.465Z,36.83
2023-03-18T16:32:35.827Z,38.64
2023-03-18T16:35:02.355Z,37.09
2023-03-18T16:37:29.217Z,37.53
2023-03-18T16:39:55.758Z,38.64
2023-03-18T16:42:54.825Z,38.91
2023-03-18T16:45:30.401Z,39.79
2023-03-18T16:47:59.686Z,39.73
2023-03-18T16:50:45.508Z,39.29
2023-03-18T16:53:19.094Z,39.15
2023-03-18T16:55:47.211Z,39.91
2023-03-18T16:58:23.044Z,40.03
2023-03-18T17:00:49.691Z,40.73
2023-03-18T17:03:18.230Z,40.17
2023-03-18T17:05:46.341Z,40.23
2023-03-18T17:08:13.037Z,41.09
2023-03-18T17:10:40.380Z,40.54
2023-03-18T17:13:08.024Z,40.32
2023-03-18T17:15:37.883Z,41.08
2023-03-18T17:18:07.256Z,40.75
2023-03-18T17:20:33.964Z,40.11
2023-03-18T17:23:00.785Z,41.32
2023-03-18T17:25:28.572Z,41.32
2023-03-18T17:28:04.647Z,41.50
2023-03-18T17:30:34.161Z,40.93
2023-03-18T17:33:01.748Z,40.87
2023-03-18T17:35:29.860Z,41.15
2023-03-18T17:37:56.504Z,40.75
2023-03-18T17:40:25.798Z,41.37
2023-03-18T17:42:52.673Z,40.00
2023-03-18T17:45:49.350Z,40.33
2023-03-18T17:48:28.294Z,40.44
2023-03-18T17:50:56.747Z,40.38
2023-03-18T17:53:26.530Z,39.80
2023-03-18T17:55:55.534Z,39.83
2023-03-18T17:58:24.463Z,39.84
2023-03-18T18:00:51.133Z,40.63
2023-03-18T18:03:21.837Z,40.03
2023-03-18T18:05:48.568Z,40.34
2023-03-18T18:08:16.515Z,40.20
2023-03-18T18:10:46.338Z,40.39
2023-03-18T18:13:15.212Z,40.66
2023-03-18T18:15:42.004Z,40.58
2023-03-18T18:18:27.978Z,40.31
2023-03-18T18:21:03.201Z,40.39
2023-03-18T18:23:37.112Z,40.70
2023-03-18T18:26:05.880Z,40.08
2023-03-18T18:28:33.830Z,41.60
2023-03-18T18:31:01.709Z,41.68
2023-03-18T18:33:28.661Z,40.42
2023-03-18T18:35:55.328Z,41.05
2023-03-18T18:38:22.046Z,41.17
2023-03-18T18:40:48.800Z,41.30
2023-03-18T18:43:15.322Z,42.40
2023-03-18T18:45:42.124Z,42.14
2023-03-18T18:48:16.762Z,42.46
2023-03-18T18:50:45.436Z,42.75
2023-03-18T18:53:32.885Z,42.07
2023-03-18T18:56:01.487Z,42.61
2023-03-18T18:58:30.075Z,42.61
2023-03-18T19:00:57.449Z,42.79
2023-03-18T19:03:30.082Z,42.67
2023-03-18T19:05:57.327Z,42.47
2023-03-18T19:08:28.026Z,42.70
2023-03-18T19:10:56.039Z,43.66
2023-03-18T19:13:24.367Z,43.57
2023-03-18T19:15:52.891Z,44.36
2023-03-18T19:18:22.192Z,43.63
2023-03-18T19:20:48.808Z,43.95
2023-03-18T19:23:17.860Z,43.70
2023-03-18T19:25:44.532Z,44.40
2023-03-18T19:28:20.172Z,44.05
2023-03-18T19:30:49.776Z,44.40
2023-03-18T19:33:17.130Z,43.20
2023-03-18T19:35:44.117Z,43.55
2023-03-18T19:38:31.024Z,43.60
2023-03-18T19:40:57.654Z,44.62
2023-03-18T19:43:24.147Z,43.84
2023-03-18T19:45:52.009Z,44.60
2023-03-18T19:48:20.098Z,44.47
2023-03-18T19:50:46.894Z,44.49
2023-03-18T19:53:15.036Z,44.53
2023-03-18T19:55:42.184Z,44.04
2023-03-18T19:58:19.194Z,44.57
2023-03-18T20:00:49.046Z,44.62
2023-03-18T20:03:21.636Z,44.20
2023-03-18T20:05:51.527Z,45.35
2023-03-18T20:08:18.403Z,44.68
2023-03-18T20:10:46.381Z,44.39
2023-03-18T20:13:16.820Z,46.05
2023-03-18T20:15:43.886Z,44.52
2023-03-18T20:18:15.925Z,44.75
2023-03-18T20:20:45.692Z,44.08
2023-03-18T20:23:23.606Z,44.17
2023-03-18T20:25:50.189Z,44.32
2023-03-18T20:28:24.331Z,44.85
2023-03-18T20:30:52.743Z,44.38
2023-03-18T20:33:20.311Z,44.53
2023-03-18T20:35:48.471Z,45.30
2023-03-18T20:38:30.978Z,45.68
2023-03-18T20:40:57.653Z,45.38
2023-03-18T20:43:26.084Z,44.72
2023-03-18T20:45:53.026Z,45.33
2023-03-18T20:51:51.268Z,45.31
2023-03-18T20:54:19.403Z,45.61
2023-03-18T20:56:46.815Z,45.62
2023-03-18T20:59:13.461Z,45.08
2023-03-18T21:01:40.093Z,46.46
2023-03-18T21:04:09.699Z,45.92
2023-03-18T21:06:36.255Z,46.39
2023-03-18T21:09:02.817Z,46.42
2023-03-18T21:11:32.216Z,46.35
2023-03-18T21:13:59.196Z,47.06
2023-03-18T21:16:25.774Z,46.79
2023-03-18T21:18:52.282Z,46.68
2023-03-18T21:21:18.900Z,46.20
2023-03-18T21:23:47.976Z,46.57
2023-03-18T21:26:14.578Z,46.81
2023-03-18T21:28:41.087Z,46.81
2023-03-18T21:31:21.323Z,46.71
2023-03-18T21:33:47.855Z,46.53
2023-03-18T21:36:14.461Z,45.40
2023-03-18T21:38:41.066Z,45.74
2023-03-18T21:41:18.451Z,46.48
2023-03-18T21:43:45.096Z,47.27
2023-03-18T21:46:13.885Z,46.49
2023-03-18T21:48:40.409Z,46.90
2023-03-18T21:51:07.059Z,47.34
2023-03-18T21:53:33.565Z,48.20
2023-03-18T21:56:00.136Z,47.95
2023-03-18T21:58:46.657Z,48.75
2023-03-18T22:01:18.556Z,49.38
2023-03-18T22:03:46.036Z,47.38
2023-03-18T22:06:20.387Z,47.53
2023-03-18T22:08:46.971Z,48.10
2023-03-18T22:11:15.002Z,47.10
2023-03-18T22:13:41.684Z,48.09
2023-03-18T22:16:11.823Z,48.50
2023-03-18T22:18:38.480Z,48.51
2023-03-18T22:21:20.220Z,48.99
2023-03-18T22:23:46.825Z,48.11
2023-03-18T22:26:17.381Z,48.71
2023-03-18T22:28:44.927Z,48.27
2023-03-18T22:31:23.671Z,50.15
2023-03-18T22:33:50.491Z,51.66
2023-03-18T22:36:18.176Z,51.02
2023-03-18T22:38:45.240Z,52.73
2023-03-18T22:41:22.850Z,55.41
2023-03-18T22:43:49.804Z,53.22
2023-03-18T22:46:16.747Z,53.80
2023-03-18T22:48:43.439Z,53.40
2023-03-18T22:51:20.288Z,54.92
2023-03-18T22:53:48.961Z,54.84
2023-03-18T22:56:17.050Z,53.96
2023-03-18T22:58:43.862Z,56.47
2023-03-18T23:01:18.872Z,57.08
2023-03-18T23:03:45.847Z,54.98
2023-03-18T23:06:18.092Z,55.10
2023-03-18T23:08:44.844Z,55.93
2023-03-18T23:11:11.793Z,53.94
2023-03-18T23:13:43.824Z,52.68
2023-03-18T23:16:18.348Z,52.19
2023-03-18T23:18:44.922Z,52.72
2023-03-18T23:21:17.010Z,52.94
2023-03-18T23:23:43.586Z,52.49
2023-03-18T23:26:10.118Z,51.85
2023-03-18T23:28:44.409Z,51.28
2023-03-18T23:31:12.072Z,52.30
2023-03-18T23:33:38.679Z,52.67
2023-03-18T23:36:05.779Z,51.45
2023-03-18T23:38:32.329Z,51.08
2023-03-18T23:40:58.894Z,52.90
2023-03-18T23:43:25.401Z,53.34
2023-03-18T23:45:52.040Z,53.41
2023-03-18T23:48:18.696Z,54.18
2023-03-18T23:50:45.709Z,53.29
2023-03-18T23:53:12.191Z,54.33
2023-03-18T23:55:38.698Z,56.21
2023-03-18T23:58:05.263Z,57.06
